Terminal Aerodrome Forecast
Issued by NWS Charleston, WV

Current Version | Previous Version | Text Only | Print | Product List | Glossary Off
Versions: 1 2 3 4 5 6 7 8 9 10 11 12 13 14 15 16 17 18 19 20 21

000
FTUS41 KRLX 251100
TAFHTS
TAF
KHTS 251133Z 2512/2612 20006KT P6SM SCT200
     FM251500 24007KT P6SM SCT200
     FM251800 26006KT P6SM SCT030
     FM260100 31004KT P6SM BKN250=

USA.gov is the U.S. government's official web portal to all federal, state and local government web resources and services.